createdAt,value
2022-12-08T00:01:30.670Z,4.83
2022-12-08T00:03:59.430Z,4.61
2022-12-08T00:06:48.368Z,4.55
2022-12-08T00:09:24.888Z,4.46
2022-12-08T00:11:55.255Z,4.67
2022-12-08T00:14:25.460Z,4.93
2022-12-08T00:16:53.324Z,4.80
2022-12-08T00:19:21.445Z,4.90
2022-12-08T00:21:51.264Z,4.80
2022-12-08T00:24:19.796Z,4.94
2022-12-08T00:26:47.866Z,4.98
2022-12-08T00:29:17.552Z,5.08
2022-12-08T00:31:45.670Z,5.06
2022-12-08T00:34:13.479Z,4.90
2022-12-08T00:36:41.177Z,5.27
2022-12-08T00:39:10.507Z,5.09
2022-12-08T00:41:55.561Z,5.22
2022-12-08T00:44:23.267Z,5.31
2022-12-08T00:46:51.183Z,5.24
2022-12-08T00:49:19.230Z,5.13
2022-12-08T00:51:47.023Z,5.27
2022-12-08T00:54:16.131Z,5.19
2022-12-08T00:56:44.390Z,5.04
2022-12-08T00:59:12.008Z,5.18
2022-12-08T01:01:39.922Z,5.30
2022-12-08T01:04:11.579Z,5.52
2022-12-08T01:06:40.530Z,5.60
2022-12-08T01:09:08.997Z,5.23
2022-12-08T01:11:38.151Z,5.03
2022-12-08T01:14:05.864Z,5.30
2022-12-08T01:16:36.092Z,5.34
2022-12-08T01:19:04.815Z,5.24
2022-12-08T01:21:32.658Z,5.33
2022-12-08T01:24:02.676Z,5.49
2022-12-08T01:26:30.586Z,5.26
2022-12-08T01:28:59.810Z,5.07
2022-12-08T01:31:27.627Z,5.35
2022-12-08T01:33:55.462Z,5.47
2022-12-08T01:36:25.293Z,5.19
2022-12-08T01:38:53.794Z,4.79
2022-12-08T01:41:24.369Z,4.87
2022-12-08T01:44:02.055Z,4.97
2022-12-08T01:46:31.707Z,5.23
2022-12-08T01:49:04.321Z,4.95
2022-12-08T01:51:36.150Z,5.37
2022-12-08T01:54:06.083Z,5.06
2022-12-08T01:56:38.799Z,5.33
2022-12-08T01:59:08.537Z,5.12
2022-12-08T02:01:36.604Z,5.07
2022-12-08T02:04:05.399Z,4.82
2022-12-08T02:06:37.280Z,5.05
2022-12-08T02:09:06.930Z,4.95
2022-12-08T02:11:35.069Z,4.69
2022-12-08T02:14:05.329Z,4.86
2022-12-08T02:16:43.377Z,5.06
2022-12-08T02:19:42.598Z,4.58
2022-12-08T02:22:15.376Z,5.08
2022-12-08T02:24:51.924Z,5.13
2022-12-08T02:27:41.160Z,4.53
2022-12-08T02:30:24.805Z,4.82
2022-12-08T02:33:44.311Z,4.99
2022-12-08T02:36:22.191Z,4.82
2022-12-08T02:39:01.287Z,4.37
2022-12-08T02:41:39.601Z,4.90
2022-12-08T02:44:14.830Z,4.60
2022-12-08T02:46:48.427Z,4.77
2022-12-08T02:49:16.727Z,4.68
2022-12-08T02:51:45.859Z,4.99
2022-12-08T02:54:14.421Z,4.86
2022-12-08T02:57:01.551Z,4.75
2022-12-08T02:59:45.564Z,4.44
2022-12-08T03:02:32.003Z,4.94
2022-12-08T03:05:06.449Z,4.79
2022-12-08T03:07:41.097Z,4.92
2022-12-08T03:10:13.358Z,5.09
2022-12-08T03:12:45.181Z,4.76
2022-12-08T03:15:19.376Z,4.79
2022-12-08T03:17:52.976Z,4.78
2022-12-08T03:20:22.898Z,4.83
2022-12-08T03:22:55.386Z,4.70
2022-12-08T03:25:25.202Z,4.76
2022-12-08T03:27:53.437Z,4.81
2022-12-08T03:30:21.704Z,5.24
2022-12-08T03:32:55.152Z,5.33
2022-12-08T03:35:25.838Z,5.12
2022-12-08T03:38:03.656Z,5.04
2022-12-08T03:40:31.446Z,4.83
2022-12-08T03:42:59.139Z,4.26
2022-12-08T03:45:26.963Z,4.95
2022-12-08T03:48:08.741Z,4.91
2022-12-08T03:50:36.495Z,4.59
2022-12-08T03:53:05.583Z,4.33
2022-12-08T03:55:33.254Z,4.74
2022-12-08T03:58:00.958Z,4.87
2022-12-08T04:00:28.659Z,5.02
2022-12-08T04:02:56.460Z,5.07
2022-12-08T04:05:24.275Z,5.29
2022-12-08T04:07:51.994Z,4.78
2022-12-08T04:10:21.149Z,5.10
2022-12-08T04:12:48.875Z,5.07
2022-12-08T04:15:16.681Z,5.36
2022-12-08T04:17:44.390Z,4.63
2022-12-08T04:20:12.902Z,4.81
2022-12-08T04:22:40.616Z,4.88
2022-12-08T04:25:08.861Z,5.08
2022-12-08T04:27:37.948Z,4.87
2022-12-08T04:30:07.115Z,5.07
2022-12-08T04:32:35.156Z,5.26
2022-12-08T04:35:02.971Z,5.13
2022-12-08T04:37:30.804Z,4.92
2022-12-08T04:39:58.667Z,5.03
2022-12-08T04:42:26.413Z,5.01
2022-12-08T04:44:55.477Z,4.78
2022-12-08T04:47:23.173Z,4.81
2022-12-08T04:49:50.934Z,4.53
2022-12-08T04:52:18.638Z,4.41
2022-12-08T04:54:46.421Z,4.36
2022-12-08T04:57:14.168Z,4.14
2022-12-08T04:59:41.983Z,4.36
2022-12-08T05:02:11.158Z,4.37
2022-12-08T05:04:39.624Z,4.41
2022-12-08T05:07:07.597Z,4.26
2022-12-08T05:09:35.355Z,4.37
2022-12-08T05:12:03.381Z,4.39
2022-12-08T05:14:31.072Z,4.53
2022-12-08T05:16:58.801Z,4.79
2022-12-08T05:19:27.878Z,4.50
2022-12-08T05:21:55.554Z,4.31
2022-12-08T05:24:23.349Z,4.23
2022-12-08T05:26:51.063Z,4.41
2022-12-08T05:29:18.854Z,4.21
2022-12-08T05:31:46.715Z,4.37
2022-12-08T05:34:14.531Z,3.94
2022-12-08T05:36:43.651Z,4.18
2022-12-08T05:39:13.481Z,3.93
2022-12-08T05:41:41.630Z,4.04
2022-12-08T05:44:10.114Z,4.35
2022-12-08T05:46:38.147Z,4.46
2022-12-08T05:49:05.878Z,4.33
2022-12-08T05:51:33.712Z,4.48
2022-12-08T05:54:02.940Z,4.69
2022-12-08T05:56:30.656Z,4.49
2022-12-08T05:58:58.420Z,4.44
2022-12-08T06:01:28.515Z,4.40
2022-12-08T06:03:57.851Z,4.67
2022-12-08T06:06:25.850Z,4.83
2022-12-08T06:08:54.043Z,4.86
2022-12-08T06:11:24.795Z,4.76
2022-12-08T06:13:53.236Z,5.02
2022-12-08T06:16:21.115Z,4.84
2022-12-08T06:18:48.837Z,4.91
2022-12-08T06:21:17.725Z,4.79
2022-12-08T06:23:45.729Z,5.14
2022-12-08T06:26:15.799Z,5.12
2022-12-08T06:28:45.029Z,5.09
2022-12-08T06:31:15.555Z,5.26
2022-12-08T06:33:43.427Z,4.94
2022-12-08T06:36:13.137Z,5.25
2022-12-08T06:38:43.536Z,5.20
2022-12-08T06:41:12.073Z,4.97
2022-12-08T06:43:40.891Z,5.07
2022-12-08T06:46:12.145Z,5.01
2022-12-08T06:48:39.951Z,4.77
2022-12-08T06:51:09.667Z,4.97
2022-12-08T06:53:37.508Z,4.96
2022-12-08T06:56:05.832Z,5.07
2022-12-08T06:58:34.899Z,5.00
2022-12-08T07:01:06.387Z,4.75
2022-12-08T07:03:35.685Z,5.00
2022-12-08T07:06:04.322Z,5.03
2022-12-08T07:08:33.361Z,4.78
2022-12-08T07:11:06.932Z,4.63
2022-12-08T07:13:34.845Z,4.90
2022-12-08T07:16:02.531Z,4.87
2022-12-08T07:18:30.219Z,5.01
2022-12-08T07:21:04.348Z,5.07
2022-12-08T07:23:32.823Z,5.05
2022-12-08T07:26:03.223Z,4.77
2022-12-08T07:28:31.883Z,4.88
2022-12-08T07:30:59.941Z,4.97
2022-12-08T07:33:27.815Z,4.58
2022-12-08T07:35:56.317Z,4.97
2022-12-08T07:38:26.440Z,5.02
2022-12-08T07:40:54.821Z,5.15
2022-12-08T07:43:23.415Z,5.13
2022-12-08T07:45:51.821Z,5.25
2022-12-08T07:48:19.696Z,5.24
2022-12-08T07:50:48.454Z,5.40
2022-12-08T07:53:16.399Z,5.40
2022-12-08T07:55:45.761Z,5.41
2022-12-08T07:58:13.700Z,5.52
2022-12-08T08:00:41.552Z,5.57
2022-12-08T08:03:11.452Z,5.52
2022-12-08T08:05:39.220Z,5.44
2022-12-08T08:08:07.047Z,5.56
2022-12-08T08:10:34.934Z,5.56
2022-12-08T08:13:03.966Z,5.62
2022-12-08T08:15:31.874Z,5.40
2022-12-08T08:17:59.678Z,4.94
2022-12-08T08:20:28.031Z,5.39
2022-12-08T08:22:55.858Z,5.48
2022-12-08T08:25:23.804Z,5.30
2022-12-08T08:27:51.831Z,5.17
2022-12-08T08:30:21.376Z,5.19
2022-12-08T08:32:49.590Z,5.51
2022-12-08T08:35:17.580Z,5.52
2022-12-08T08:37:48.849Z,5.00
2022-12-08T08:40:17.487Z,5.69
2022-12-08T08:42:45.184Z,5.39
2022-12-08T08:45:13.283Z,5.64
2022-12-08T08:47:42.473Z,5.75
2022-12-08T08:50:10.632Z,5.85
2022-12-08T08:52:38.519Z,5.82
2022-12-08T08:55:07.054Z,5.36
2022-12-08T08:57:34.811Z,5.33
2022-12-08T09:00:02.903Z,5.24
2022-12-08T09:02:30.900Z,5.08
2022-12-08T09:05:00.190Z,5.21
2022-12-08T09:07:28.045Z,5.32
2022-12-08T09:10:01.396Z,5.38
2022-12-08T09:12:29.796Z,5.07
2022-12-08T09:14:57.502Z,5.42
2022-12-08T09:17:25.251Z,5.54
2022-12-08T09:19:53.010Z,5.36
2022-12-08T09:22:22.069Z,5.15
2022-12-08T09:24:49.874Z,5.31
2022-12-08T09:27:17.574Z,5.29
2022-12-08T09:29:45.377Z,5.08
2022-12-08T09:32:13.099Z,5.08
2022-12-08T09:34:40.864Z,4.94
2022-12-08T09:37:08.975Z,5.31
2022-12-08T09:39:38.106Z,5.53
2022-12-08T09:42:07.871Z,5.93
2022-12-08T09:44:51.681Z,5.82
2022-12-08T09:47:22.970Z,5.89
2022-12-08T09:49:59.611Z,5.73
2022-12-08T09:52:31.204Z,5.80
2022-12-08T09:55:04.396Z,5.43
2022-12-08T09:57:32.773Z,5.85
2022-12-08T10:00:05.966Z,5.88
2022-12-08T10:02:34.090Z,6.24
2022-12-08T10:05:01.922Z,6.28
2022-12-08T10:07:40.003Z,6.17
2022-12-08T10:10:22.265Z,6.14
2022-12-08T10:12:55.253Z,6.31
2022-12-08T10:15:41.359Z,7.00
2022-12-08T10:18:15.867Z,7.04
2022-12-08T10:20:45.303Z,6.66
2022-12-08T10:23:23.690Z,6.70
2022-12-08T10:25:59.717Z,6.75
2022-12-08T10:28:27.485Z,5.97
2022-12-08T10:30:55.362Z,6.45
2022-12-08T10:33:24.068Z,6.41
2022-12-08T10:35:53.304Z,6.15
2022-12-08T10:38:24.821Z,5.54
2022-12-08T10:41:00.353Z,5.40
2022-12-08T10:43:28.871Z,5.67
2022-12-08T10:46:08.605Z,5.21
2022-12-08T10:48:36.395Z,5.67
2022-12-08T10:51:05.661Z,6.04
2022-12-08T10:53:34.516Z,6.06
2022-12-08T10:56:16.437Z,5.94
2022-12-08T10:58:45.633Z,5.92
2022-12-08T11:01:15.783Z,5.85
2022-12-08T11:03:47.807Z,6.14
2022-12-08T11:06:19.732Z,6.20
2022-12-08T11:08:51.419Z,5.76
2022-12-08T11:11:27.564Z,5.94
2022-12-08T11:13:57.440Z,6.31
2022-12-08T11:16:25.275Z,6.56
2022-12-08T11:18:57.790Z,5.87
2022-12-08T11:21:36.897Z,6.15
2022-12-08T11:24:23.180Z,6.65
2022-12-08T11:26:55.563Z,6.59
2022-12-08T11:29:23.512Z,6.60
2022-12-08T11:31:55.036Z,6.29
2022-12-08T11:34:33.161Z,6.44
2022-12-08T11:37:00.969Z,6.08
2022-12-08T11:39:33.302Z,6.08
2022-12-08T11:42:08.065Z,6.00
2022-12-08T11:44:43.395Z,6.19
2022-12-08T11:47:16.375Z,6.10
2022-12-08T11:52:22.230Z,6.06
2022-12-08T11:54:56.284Z,6.21
2022-12-08T11:57:27.976Z,5.93
2022-12-08T11:59:58.189Z,5.96
2022-12-08T12:02:28.946Z,6.09
2022-12-08T12:05:02.117Z,6.10
2022-12-08T12:07:56.008Z,6.18
2022-12-08T12:10:47.764Z,6.33
2022-12-08T12:13:33.608Z,6.61
2022-12-08T12:16:35.750Z,6.71
2022-12-08T12:19:06.261Z,6.56
2022-12-08T12:21:39.222Z,6.35
2022-12-08T12:24:11.260Z,6.54
2022-12-08T12:26:50.195Z,6.38
2022-12-08T12:29:23.753Z,6.76
2022-12-08T12:31:56.136Z,6.80
2022-12-08T12:34:28.183Z,6.84
2022-12-08T12:36:58.920Z,6.99
2022-12-08T12:39:30.352Z,7.05
2022-12-08T12:42:00.790Z,6.71
2022-12-08T12:44:43.446Z,6.97
2022-12-08T12:47:16.082Z,6.86
2022-12-08T12:50:05.587Z,6.63
2022-12-08T12:52:44.474Z,6.73
2022-12-08T12:55:43.131Z,6.63
2022-12-08T12:58:38.098Z,6.76
2022-12-08T13:01:56.487Z,6.79
2022-12-08T13:04:37.882Z,6.88
2022-12-08T13:07:06.067Z,6.80
2022-12-08T13:09:38.124Z,6.73
2022-12-08T13:12:11.326Z,6.84
2022-12-08T13:14:46.643Z,6.91
2022-12-08T13:17:18.539Z,6.50
2022-12-08T13:19:52.077Z,6.28
2022-12-08T13:22:57.176Z,6.72
2022-12-08T13:26:02.214Z,6.71
2022-12-08T13:28:31.459Z,6.87
2022-12-08T13:31:00.177Z,6.98
2022-12-08T13:33:32.144Z,7.14
2022-12-08T13:36:14.451Z,7.10
2022-12-08T13:38:46.096Z,7.00
2022-12-08T13:41:18.853Z,7.06
2022-12-08T13:44:31.158Z,6.78
2022-12-08T13:54:03.419Z,7.28
2022-12-08T13:56:51.474Z,7.16
2022-12-08T13:58:21.349Z,7.14
2022-12-08T14:01:01.541Z,7.08
2022-12-08T14:03:29.751Z,6.91
2022-12-08T14:06:13.668Z,6.95
2022-12-08T14:09:06.712Z,6.93
2022-12-08T14:11:36.677Z,6.71
2022-12-08T14:14:07.252Z,6.53
2022-12-08T14:16:39.476Z,5.96
2022-12-08T14:19:19.319Z,6.36
2022-12-08T14:21:57.341Z,6.56
2022-12-08T14:24:27.696Z,5.50
2022-12-08T14:26:57.684Z,5.86
2022-12-08T14:29:39.795Z,6.15
2022-12-08T14:32:21.058Z,6.59
2022-12-08T14:34:54.925Z,6.11
2022-12-08T14:37:23.876Z,6.13
2022-12-08T14:39:53.850Z,6.33
2022-12-08T14:42:24.779Z,6.28
2022-12-08T14:45:02.131Z,6.26
2022-12-08T14:47:32.255Z,6.16
2022-12-08T14:50:00.637Z,6.16
2022-12-08T14:52:29.397Z,5.90
2022-12-08T14:54:59.938Z,6.03
2022-12-08T14:57:36.304Z,5.67
2022-12-08T15:00:12.235Z,5.57
2022-12-08T15:02:46.467Z,5.67
2022-12-08T15:05:18.030Z,5.98
2022-12-08T15:07:51.308Z,5.73
2022-12-08T15:10:25.127Z,5.97
2022-12-08T15:13:08.807Z,6.01
2022-12-08T15:15:51.431Z,5.95
2022-12-08T15:18:22.089Z,6.03
2022-12-08T15:20:52.162Z,5.75
2022-12-08T15:23:27.509Z,5.78
2022-12-08T15:25:57.386Z,6.21
2022-12-08T15:28:30.219Z,6.13
2022-12-08T15:30:59.096Z,6.04
2022-12-08T15:33:26.947Z,6.22
2022-12-08T15:35:54.732Z,5.80
2022-12-08T15:38:25.403Z,5.82
2022-12-08T15:40:53.618Z,5.63
2022-12-08T15:43:23.755Z,6.08
2022-12-08T15:45:58.986Z,6.03
2022-12-08T15:48:29.890Z,5.84
2022-12-08T15:50:58.220Z,5.27
2022-12-08T15:53:25.970Z,5.13
2022-12-08T15:56:25.922Z,5.24
2022-12-08T15:58:59.606Z,5.24
2022-12-08T16:01:28.009Z,5.38
2022-12-08T16:09:38.353Z,5.84
2022-12-08T16:12:24.892Z,5.74
2022-12-08T16:17:42.592Z,5.63
2022-12-08T16:20:16.898Z,5.23
2022-12-08T16:23:03.130Z,4.75
2022-12-08T16:26:00.066Z,4.93
2022-12-08T16:28:52.738Z,5.04
2022-12-08T16:31:15.819Z,5.54
2022-12-08T16:33:45.632Z,5.53
2022-12-08T16:36:13.628Z,5.22
2022-12-08T16:38:41.342Z,5.48
2022-12-08T16:41:33.043Z,4.99
2022-12-08T16:44:04.004Z,5.13
2022-12-08T16:46:33.664Z,4.96
2022-12-08T16:49:01.544Z,4.95
2022-12-08T16:51:29.454Z,4.95
2022-12-08T16:54:00.561Z,4.68
2022-12-08T16:56:33.085Z,4.82
2022-12-08T16:59:01.960Z,4.30
2022-12-08T17:01:29.990Z,4.50
2022-12-08T17:06:47.093Z,5.12
2022-12-08T17:09:14.823Z,5.05
2022-12-08T17:11:43.911Z,5.28
2022-12-08T17:14:12.651Z,5.30
2022-12-08T17:16:41.154Z,5.34
2022-12-08T17:19:10.353Z,5.38
2022-12-08T17:21:38.065Z,5.55
2022-12-08T17:24:06.017Z,5.45
2022-12-08T17:26:33.774Z,5.45
2022-12-08T17:29:02.432Z,5.40
2022-12-08T17:31:31.778Z,5.16
2022-12-08T17:34:00.506Z,5.27
2022-12-08T17:36:29.748Z,5.33
2022-12-08T17:39:00.305Z,5.25
2022-12-08T17:41:28.244Z,5.40
2022-12-08T17:43:55.918Z,5.53
2022-12-08T17:46:24.754Z,5.52
2022-12-08T17:48:52.889Z,5.40
2022-12-08T17:51:20.645Z,5.41
2022-12-08T17:53:49.861Z,5.24
2022-12-08T17:56:19.231Z,5.16
2022-12-08T17:58:52.616Z,5.08
2022-12-08T18:01:22.948Z,5.02
2022-12-08T18:03:51.275Z,4.84
2022-12-08T18:06:19.155Z,4.77
2022-12-08T18:08:47.069Z,4.40
2022-12-08T18:11:18.363Z,4.18
2022-12-08T18:13:46.311Z,4.01
2022-12-08T18:16:14.477Z,3.80
2022-12-08T18:18:42.596Z,3.76
2022-12-08T18:21:10.929Z,3.96
2022-12-08T18:23:39.723Z,3.74
2022-12-08T18:26:09.186Z,3.75
2022-12-08T18:28:39.306Z,4.05
2022-12-08T18:31:09.800Z,3.81
2022-12-08T18:33:38.300Z,3.65
2022-12-08T18:36:10.758Z,4.17
2022-12-08T18:38:39.938Z,3.54
2022-12-08T18:41:09.330Z,3.11
2022-12-08T18:43:39.253Z,2.87
2022-12-08T18:46:09.417Z,3.46
2022-12-08T18:48:38.964Z,3.45
2022-12-08T18:51:11.838Z,3.46
2022-12-08T18:53:40.279Z,3.78
2022-12-08T18:56:08.859Z,3.86
2022-12-08T18:58:37.930Z,4.12
2022-12-08T19:01:05.751Z,3.99
2022-12-08T19:03:33.494Z,4.27
2022-12-08T19:06:04.691Z,4.09
2022-12-08T19:08:33.881Z,4.24
2022-12-08T19:11:01.768Z,4.10
2022-12-08T19:13:30.433Z,3.78
2022-12-08T19:15:59.863Z,4.07
2022-12-08T19:18:27.600Z,4.36
2022-12-08T19:20:56.896Z,4.45
2022-12-08T19:23:24.630Z,4.54
2022-12-08T19:25:52.420Z,4.70
2022-12-08T19:28:20.128Z,4.59
2022-12-08T19:30:48.070Z,4.24
2022-12-08T19:33:17.436Z,4.07
2022-12-08T19:35:50.724Z,4.22
2022-12-08T19:38:20.259Z,4.11
2022-12-08T19:41:13.917Z,4.34
2022-12-08T19:43:59.266Z,4.40
2022-12-08T19:46:27.120Z,4.18
2022-12-08T19:48:56.228Z,3.25
2022-12-08T19:51:23.954Z,2.96
2022-12-08T19:53:51.656Z,3.56
2022-12-08T19:56:19.410Z,2.97
2022-12-08T19:58:47.137Z,3.45
2022-12-08T20:01:14.994Z,3.47
2022-12-08T20:03:42.831Z,3.81
2022-12-08T20:06:15.731Z,3.92
2022-12-08T20:08:48.960Z,3.31
2022-12-08T20:11:18.280Z,3.01
2022-12-08T20:13:47.711Z,2.83
2022-12-08T20:16:16.668Z,2.61
2022-12-08T20:18:45.925Z,2.86
2022-12-08T20:21:15.030Z,2.62
2022-12-08T20:23:42.783Z,3.10
2022-12-08T20:26:13.956Z,3.25
2022-12-08T20:28:41.771Z,3.07
2022-12-08T20:31:17.906Z,2.62
2022-12-08T20:33:47.416Z,2.97
2022-12-08T20:36:19.140Z,2.86
2022-12-08T20:38:47.690Z,3.27
2022-12-08T20:41:18.894Z,3.51
2022-12-08T20:43:48.797Z,2.83
2022-12-08T20:46:21.876Z,2.97
2022-12-08T20:48:49.865Z,3.08
2022-12-08T20:51:22.957Z,3.09
2022-12-08T20:53:55.001Z,3.10
2022-12-08T20:56:24.796Z,3.38
2022-12-08T20:58:55.677Z,3.41
2022-12-08T21:01:25.372Z,3.56
2022-12-08T21:03:53.858Z,3.86
2022-12-08T21:06:25.924Z,3.89
2022-12-08T21:08:53.709Z,3.98
2022-12-08T21:11:21.743Z,3.99
2022-12-08T21:13:49.681Z,3.92
2022-12-08T21:16:17.647Z,4.01
2022-12-08T21:18:45.796Z,3.86
2022-12-08T21:21:15.143Z,3.95
2022-12-08T21:23:44.739Z,3.91
2022-12-08T21:26:15.314Z,3.99
2022-12-08T21:28:43.574Z,4.01
2022-12-08T21:31:13.061Z,3.88
2022-12-08T21:33:40.952Z,3.14
2022-12-08T21:36:12.403Z,3.18
2022-12-08T21:38:41.542Z,2.65
2022-12-08T21:41:13.248Z,3.09
2022-12-08T21:43:41.529Z,3.50
2022-12-08T21:46:16.622Z,3.50
2022-12-08T21:48:44.631Z,3.64
2022-12-08T21:51:12.598Z,3.73
2022-12-08T21:53:40.527Z,3.81
2022-12-08T21:56:11.119Z,3.83
2022-12-08T21:58:39.808Z,3.85
2022-12-08T22:01:07.892Z,3.80
2022-12-08T22:03:36.434Z,3.39
2022-12-08T22:06:08.203Z,3.57
2022-12-08T22:08:36.373Z,3.76
2022-12-08T22:11:05.249Z,3.85
2022-12-08T22:13:36.940Z,3.48
2022-12-08T22:16:08.084Z,3.54
2022-12-08T22:18:37.134Z,3.42
2022-12-08T22:21:09.728Z,3.90
2022-12-08T22:23:37.740Z,3.66
2022-12-08T22:26:06.405Z,3.83
2022-12-08T22:28:37.518Z,3.95
2022-12-08T22:31:09.657Z,3.66
2022-12-08T22:33:37.627Z,3.92
2022-12-08T22:36:11.018Z,3.81
2022-12-08T22:38:39.269Z,3.79
2022-12-08T22:41:07.642Z,3.96
2022-12-08T22:43:37.245Z,3.59
2022-12-08T22:46:11.874Z,3.75
2022-12-08T22:48:40.496Z,3.28
2022-12-08T22:51:08.734Z,3.05
2022-12-08T22:53:36.405Z,3.29
2022-12-08T22:56:08.296Z,3.19
2022-12-08T22:58:37.972Z,3.12
2022-12-08T23:01:05.974Z,3.29
2022-12-08T23:03:34.692Z,3.11
2022-12-08T23:06:03.098Z,3.31
2022-12-08T23:08:31.137Z,3.25
2022-12-08T23:10:58.861Z,3.28
2022-12-08T23:13:26.572Z,3.62
2022-12-08T23:15:55.782Z,3.29
2022-12-08T23:18:23.629Z,3.57
2022-12-08T23:20:51.411Z,3.70
2022-12-08T23:23:19.056Z,3.78
2022-12-08T23:25:46.903Z,3.53
2022-12-08T23:28:14.830Z,3.46
2022-12-08T23:30:43.115Z,3.54
2022-12-08T23:33:12.701Z,3.57
2022-12-08T23:35:40.507Z,2.83
2022-12-08T23:38:08.254Z,1.79
2022-12-08T23:40:36.105Z,2.21
2022-12-08T23:43:06.034Z,2.36
2022-12-08T23:45:34.112Z,2.81
2022-12-08T23:48:01.886Z,3.08
2022-12-08T23:50:31.123Z,2.87
2022-12-08T23:52:58.973Z,3.12
2022-12-08T23:55:26.702Z,2.98
2022-12-08T23:57:54.434Z,3.15
